sensor_id;sensor_type;location;lat;lon;timestamp;P1;durP1;ratioP1;P2;durP2;ratioP2
9834;SDS011;69850;50.942;13.748;2023-06-10T00:01:27;17.27;;;13.90;;
9834;SDS011;69850;50.942;13.748;2023-06-10T00:04:48;15.65;;;13.95;;
9834;SDS011;69850;50.942;13.748;2023-06-10T00:08:10;18.83;;;15.52;;
9834;SDS011;69850;50.942;13.748;2023-06-10T00:11:32;18.77;;;16.00;;
9834;SDS011;69850;50.942;13.748;2023-06-10T00:14:52;15.43;;;13.82;;
9834;SDS011;69850;50.942;13.748;2023-06-10T00:18:13;18.23;;;14.75;;
9834;SDS011;69850;50.942;13.748;2023-06-10T00:21:34;19.80;;;15.80;;
9834;SDS011;69850;50.942;13.748;2023-06-10T00:24:57;18.10;;;15.23;;
9834;SDS011;69850;50.942;13.748;2023-06-10T00:28:18;18.75;;;14.75;;
9834;SDS011;69850;50.942;13.748;2023-06-10T00:31:38;16.27;;;14.38;;
9834;SDS011;69850;50.942;13.748;2023-06-10T00:35:00;18.98;;;14.63;;
9834;SDS011;69850;50.942;13.748;2023-06-10T00:38:21;17.90;;;14.65;;
9834;SDS011;69850;50.942;13.748;2023-06-10T00:41:41;17.90;;;15.77;;
9834;SDS011;69850;50.942;13.748;2023-06-10T00:45:02;17.45;;;15.45;;
9834;SDS011;69850;50.942;13.748;2023-06-10T00:48:23;19.45;;;15.18;;
9834;SDS011;69850;50.942;13.748;2023-06-10T00:51:44;18.17;;;15.82;;
9834;SDS011;69850;50.942;13.748;2023-06-10T00:55:05;18.88;;;16.50;;
9834;SDS011;69850;50.942;13.748;2023-06-10T00:58:28;20.52;;;16.35;;
9834;SDS011;69850;50.942;13.748;2023-06-10T01:01:48;17.92;;;14.25;;
9834;SDS011;69850;50.942;13.748;2023-06-10T01:05:10;19.33;;;14.85;;
9834;SDS011;69850;50.942;13.748;2023-06-10T01:08:35;21.77;;;16.80;;
9834;SDS011;69850;50.942;13.748;2023-06-10T01:12:10;21.95;;;17.48;;
9834;SDS011;69850;50.942;13.748;2023-06-10T01:15:34;21.05;;;17.45;;
9834;SDS011;69850;50.942;13.748;2023-06-10T01:18:55;22.33;;;19.27;;
9834;SDS011;69850;50.942;13.748;2023-06-10T01:22:18;21.42;;;17.88;;
9834;SDS011;69850;50.942;13.748;2023-06-10T01:25:40;23.40;;;16.73;;
9834;SDS011;69850;50.942;13.748;2023-06-10T01:29:17;23.15;;;17.60;;
9834;SDS011;69850;50.942;13.748;2023-06-10T01:32:45;19.20;;;17.00;;
9834;SDS011;69850;50.942;13.748;2023-06-10T01:36:09;21.35;;;17.25;;
9834;SDS011;69850;50.942;13.748;2023-06-10T01:39:29;19.65;;;17.42;;
9834;SDS011;69850;50.942;13.748;2023-06-10T01:42:51;23.05;;;19.80;;
9834;SDS011;69850;50.942;13.748;2023-06-10T01:46:13;30.58;;;19.63;;
9834;SDS011;69850;50.942;13.748;2023-06-10T01:49:34;24.00;;;19.75;;
9834;SDS011;69850;50.942;13.748;2023-06-10T01:52:56;25.73;;;18.60;;
9834;SDS011;69850;50.942;13.748;2023-06-10T01:56:17;23.08;;;18.92;;
9834;SDS011;69850;50.942;13.748;2023-06-10T01:59:40;26.05;;;20.13;;
9834;SDS011;69850;50.942;13.748;2023-06-10T02:03:02;21.50;;;18.38;;
9834;SDS011;69850;50.942;13.748;2023-06-10T02:06:23;23.30;;;19.23;;
9834;SDS011;69850;50.942;13.748;2023-06-10T02:09:43;24.70;;;18.65;;
9834;SDS011;69850;50.942;13.748;2023-06-10T02:13:04;22.08;;;18.17;;
9834;SDS011;69850;50.942;13.748;2023-06-10T02:16:25;22.75;;;17.42;;
9834;SDS011;69850;50.942;13.748;2023-06-10T02:19:46;21.98;;;17.52;;
9834;SDS011;69850;50.942;13.748;2023-06-10T02:23:12;25.23;;;19.80;;
9834;SDS011;69850;50.942;13.748;2023-06-10T02:26:33;22.00;;;19.52;;
9834;SDS011;69850;50.942;13.748;2023-06-10T02:29:54;20.88;;;18.08;;
9834;SDS011;69850;50.942;13.748;2023-06-10T02:33:15;22.77;;;18.05;;
9834;SDS011;69850;50.942;13.748;2023-06-10T02:36:38;21.60;;;18.45;;
9834;SDS011;69850;50.942;13.748;2023-06-10T02:39:58;26.35;;;21.55;;
9834;SDS011;69850;50.942;13.748;2023-06-10T02:43:20;25.45;;;18.60;;
9834;SDS011;69850;50.942;13.748;2023-06-10T02:46:42;23.38;;;18.85;;
9834;SDS011;69850;50.942;13.748;2023-06-10T02:50:03;20.50;;;18.13;;
9834;SDS011;69850;50.942;13.748;2023-06-10T02:53:28;25.00;;;20.92;;
9834;SDS011;69850;50.942;13.748;2023-06-10T02:56:57;27.45;;;22.45;;
9834;SDS011;69850;50.942;13.748;2023-06-10T03:00:20;24.15;;;20.20;;
9834;SDS011;69850;50.942;13.748;2023-06-10T03:03:43;26.30;;;19.60;;
9834;SDS011;69850;50.942;13.748;2023-06-10T03:07:05;23.08;;;18.73;;
9834;SDS011;69850;50.942;13.748;2023-06-10T03:10:28;24.63;;;20.95;;
9834;SDS011;69850;50.942;13.748;2023-06-10T03:13:49;29.25;;;21.83;;
9834;SDS011;69850;50.942;13.748;2023-06-10T03:17:13;25.65;;;21.83;;
9834;SDS011;69850;50.942;13.748;2023-06-10T03:20:36;27.95;;;21.52;;
9834;SDS011;69850;50.942;13.748;2023-06-10T03:23:58;24.42;;;20.23;;
9834;SDS011;69850;50.942;13.748;2023-06-10T03:27:19;27.63;;;19.80;;
9834;SDS011;69850;50.942;13.748;2023-06-10T03:30:43;21.08;;;17.48;;
9834;SDS011;69850;50.942;13.748;2023-06-10T03:34:04;18.77;;;16.58;;
9834;SDS011;69850;50.942;13.748;2023-06-10T03:37:27;19.02;;;15.00;;
9834;SDS011;69850;50.942;13.748;2023-06-10T03:40:48;17.58;;;13.32;;
9834;SDS011;69850;50.942;13.748;2023-06-10T03:44:09;15.90;;;12.82;;
9834;SDS011;69850;50.942;13.748;2023-06-10T03:47:33;16.35;;;11.27;;
9834;SDS011;69850;50.942;13.748;2023-06-10T03:50:56;12.27;;;11.00;;
9834;SDS011;69850;50.942;13.748;2023-06-10T03:54:19;15.82;;;10.90;;
9834;SDS011;69850;50.942;13.748;2023-06-10T03:57:39;11.07;;;9.98;;
9834;SDS011;69850;50.942;13.748;2023-06-10T04:01:00;13.50;;;10.27;;
9834;SDS011;69850;50.942;13.748;2023-06-10T04:04:27;12.98;;;9.45;;
9834;SDS011;69850;50.942;13.748;2023-06-10T04:07:47;11.80;;;8.60;;
9834;SDS011;69850;50.942;13.748;2023-06-10T04:11:09;10.35;;;9.25;;
9834;SDS011;69850;50.942;13.748;2023-06-10T04:14:29;13.68;;;8.75;;
9834;SDS011;69850;50.942;13.748;2023-06-10T04:17:51;12.50;;;9.15;;
9834;SDS011;69850;50.942;13.748;2023-06-10T04:21:15;13.63;;;9.55;;
9834;SDS011;69850;50.942;13.748;2023-06-10T04:24:35;9.73;;;8.43;;
9834;SDS011;69850;50.942;13.748;2023-06-10T04:27:56;12.52;;;8.50;;
9834;SDS011;69850;50.942;13.748;2023-06-10T04:31:16;12.27;;;8.43;;
9834;SDS011;69850;50.942;13.748;2023-06-10T04:34:38;12.23;;;8.35;;
9834;SDS011;69850;50.942;13.748;2023-06-10T04:38:01;11.02;;;8.82;;
9834;SDS011;69850;50.942;13.748;2023-06-10T04:41:24;13.98;;;8.63;;
9834;SDS011;69850;50.942;13.748;2023-06-10T04:44:46;9.07;;;8.00;;
9834;SDS011;69850;50.942;13.748;2023-06-10T04:48:07;8.90;;;8.00;;
9834;SDS011;69850;50.942;13.748;2023-06-10T04:51:28;13.20;;;8.20;;
9834;SDS011;69850;50.942;13.748;2023-06-10T04:54:49;15.18;;;8.60;;
9834;SDS011;69850;50.942;13.748;2023-06-10T04:58:09;10.25;;;8.27;;
9834;SDS011;69850;50.942;13.748;2023-06-10T05:01:30;9.93;;;8.93;;
9834;SDS011;69850;50.942;13.748;2023-06-10T05:04:50;10.70;;;7.78;;
9834;SDS011;69850;50.942;13.748;2023-06-10T05:08:11;12.13;;;8.73;;
9834;SDS011;69850;50.942;13.748;2023-06-10T05:11:32;10.77;;;7.95;;
9834;SDS011;69850;50.942;13.748;2023-06-10T05:14:52;9.27;;;8.30;;
9834;SDS011;69850;50.942;13.748;2023-06-10T05:18:13;9.10;;;8.20;;
9834;SDS011;69850;50.942;13.748;2023-06-10T05:21:33;8.48;;;7.50;;
9834;SDS011;69850;50.942;13.748;2023-06-10T05:24:54;8.18;;;7.28;;
9834;SDS011;69850;50.942;13.748;2023-06-10T05:28:14;9.82;;;7.63;;
9834;SDS011;69850;50.942;13.748;2023-06-10T05:31:35;8.50;;;7.65;;
9834;SDS011;69850;50.942;13.748;2023-06-10T05:34:56;8.20;;;7.40;;
9834;SDS011;69850;50.942;13.748;2023-06-10T05:38:16;7.72;;;6.93;;
9834;SDS011;69850;50.942;13.748;2023-06-10T05:41:37;7.78;;;7.00;;
9834;SDS011;69850;50.942;13.748;2023-06-10T05:44:57;7.18;;;6.47;;
9834;SDS011;69850;50.942;13.748;2023-06-10T05:48:18;8.25;;;7.45;;
9834;SDS011;69850;50.942;13.748;2023-06-10T05:51:40;8.15;;;6.57;;
9834;SDS011;69850;50.942;13.748;2023-06-10T05:55:01;7.65;;;6.45;;
9834;SDS011;69850;50.942;13.748;2023-06-10T05:58:22;7.80;;;6.40;;
9834;SDS011;69850;50.942;13.748;2023-06-10T06:01:43;7.20;;;6.53;;
9834;SDS011;69850;50.942;13.748;2023-06-10T06:05:04;7.50;;;6.53;;
9834;SDS011;69850;50.942;13.748;2023-06-10T06:08:25;7.68;;;6.88;;
9834;SDS011;69850;50.942;13.748;2023-06-10T06:11:45;7.15;;;6.45;;
9834;SDS011;69850;50.942;13.748;2023-06-10T06:15:06;9.18;;;6.70;;
9834;SDS011;69850;50.942;13.748;2023-06-10T06:18:28;7.65;;;6.88;;
9834;SDS011;69850;50.942;13.748;2023-06-10T06:21:49;7.97;;;6.50;;
9834;SDS011;69850;50.942;13.748;2023-06-10T06:25:09;7.15;;;6.45;;
9834;SDS011;69850;50.942;13.748;2023-06-10T06:28:30;7.28;;;6.57;;
9834;SDS011;69850;50.942;13.748;2023-06-10T06:31:51;10.00;;;6.90;;
9834;SDS011;69850;50.942;13.748;2023-06-10T06:35:12;9.27;;;6.82;;
9834;SDS011;69850;50.942;13.748;2023-06-10T06:38:32;7.68;;;6.85;;
9834;SDS011;69850;50.942;13.748;2023-06-10T06:41:54;10.35;;;6.78;;
9834;SDS011;69850;50.942;13.748;2023-06-10T06:45:28;7.30;;;6.53;;
9834;SDS011;69850;50.942;13.748;2023-06-10T06:48:49;7.40;;;6.50;;
9834;SDS011;69850;50.942;13.748;2023-06-10T06:52:09;9.32;;;6.45;;
9834;SDS011;69850;50.942;13.748;2023-06-10T06:55:30;7.50;;;6.75;;
9834;SDS011;69850;50.942;13.748;2023-06-10T06:58:50;7.50;;;6.80;;
9834;SDS011;69850;50.942;13.748;2023-06-10T07:02:11;8.93;;;6.75;;
9834;SDS011;69850;50.942;13.748;2023-06-10T07:05:32;8.50;;;7.25;;
9834;SDS011;69850;50.942;13.748;2023-06-10T07:08:52;7.65;;;6.90;;
9834;SDS011;69850;50.942;13.748;2023-06-10T07:12:13;8.35;;;6.65;;
9834;SDS011;69850;50.942;13.748;2023-06-10T07:15:33;7.15;;;6.45;;
9834;SDS011;69850;50.942;13.748;2023-06-10T07:18:54;7.22;;;6.55;;
9834;SDS011;69850;50.942;13.748;2023-06-10T07:22:14;12.13;;;6.50;;
9834;SDS011;69850;50.942;13.748;2023-06-10T07:25:35;8.60;;;6.95;;
9834;SDS011;69850;50.942;13.748;2023-06-10T07:28:56;8.27;;;6.78;;
9834;SDS011;69850;50.942;13.748;2023-06-10T07:32:16;8.60;;;6.97;;
9834;SDS011;69850;50.942;13.748;2023-06-10T07:35:37;8.38;;;7.57;;
9834;SDS011;69850;50.942;13.748;2023-06-10T07:38:57;10.63;;;7.55;;
9834;SDS011;69850;50.942;13.748;2023-06-10T07:42:18;9.10;;;7.80;;
9834;SDS011;69850;50.942;13.748;2023-06-10T07:45:42;9.73;;;7.82;;
9834;SDS011;69850;50.942;13.748;2023-06-10T07:49:03;9.52;;;7.35;;
9834;SDS011;69850;50.942;13.748;2023-06-10T07:52:23;10.20;;;8.07;;
9834;SDS011;69850;50.942;13.748;2023-06-10T07:55:44;11.70;;;8.23;;
9834;SDS011;69850;50.942;13.748;2023-06-10T07:59:05;12.50;;;8.35;;
9834;SDS011;69850;50.942;13.748;2023-06-10T08:02:25;8.82;;;7.93;;
9834;SDS011;69850;50.942;13.748;2023-06-10T08:05:46;9.63;;;8.15;;
9834;SDS011;69850;50.942;13.748;2023-06-10T08:09:07;12.13;;;8.60;;
9834;SDS011;69850;50.942;13.748;2023-06-10T08:12:27;12.15;;;8.43;;
9834;SDS011;69850;50.942;13.748;2023-06-10T08:15:48;12.45;;;7.95;;
9834;SDS011;69850;50.942;13.748;2023-06-10T08:19:10;10.50;;;8.02;;
9834;SDS011;69850;50.942;13.748;2023-06-10T08:22:31;13.60;;;8.88;;
9834;SDS011;69850;50.942;13.748;2023-06-10T08:25:52;10.00;;;8.52;;
9834;SDS011;69850;50.942;13.748;2023-06-10T08:29:12;9.35;;;8.05;;
9834;SDS011;69850;50.942;13.748;2023-06-10T08:32:33;9.60;;;7.80;;
9834;SDS011;69850;50.942;13.748;2023-06-10T08:35:54;8.70;;;7.50;;
9834;SDS011;69850;50.942;13.748;2023-06-10T08:39:14;10.20;;;7.65;;
9834;SDS011;69850;50.942;13.748;2023-06-10T08:42:39;9.00;;;7.10;;
9834;SDS011;69850;50.942;13.748;2023-06-10T08:46:03;10.80;;;7.35;;
9834;SDS011;69850;50.942;13.748;2023-06-10T08:49:24;11.73;;;7.55;;
9834;SDS011;69850;50.942;13.748;2023-06-10T08:52:47;11.32;;;7.65;;
9834;SDS011;69850;50.942;13.748;2023-06-10T08:56:09;8.65;;;7.75;;
9834;SDS011;69850;50.942;13.748;2023-06-10T08:59:30;8.63;;;7.82;;
9834;SDS011;69850;50.942;13.748;2023-06-10T09:02:50;8.18;;;7.35;;
9834;SDS011;69850;50.942;13.748;2023-06-10T09:06:12;9.35;;;7.93;;
9834;SDS011;69850;50.942;13.748;2023-06-10T09:09:33;8.50;;;7.68;;
9834;SDS011;69850;50.942;13.748;2023-06-10T09:12:55;9.20;;;7.75;;
9834;SDS011;69850;50.942;13.748;2023-06-10T09:16:15;8.55;;;7.75;;
9834;SDS011;69850;50.942;13.748;2023-06-10T09:19:36;9.52;;;8.13;;
9834;SDS011;69850;50.942;13.748;2023-06-10T09:22:59;10.15;;;7.40;;
9834;SDS011;69850;50.942;13.748;2023-06-10T09:26:20;9.25;;;8.02;;
9834;SDS011;69850;50.942;13.748;2023-06-10T09:29:47;8.45;;;7.65;;
9834;SDS011;69850;50.942;13.748;2023-06-10T09:33:12;11.48;;;7.90;;
9834;SDS011;69850;50.942;13.748;2023-06-10T09:36:34;7.90;;;7.20;;
9834;SDS011;69850;50.942;13.748;2023-06-10T09:40:05;9.30;;;7.32;;
9834;SDS011;69850;50.942;13.748;2023-06-10T09:43:43;9.40;;;7.30;;
9834;SDS011;69850;50.942;13.748;2023-06-10T09:47:05;8.27;;;7.47;;
9834;SDS011;69850;50.942;13.748;2023-06-10T09:50:25;7.78;;;7.00;;
9834;SDS011;69850;50.942;13.748;2023-06-10T09:53:50;9.32;;;7.32;;
9834;SDS011;69850;50.942;13.748;2023-06-10T09:57:11;10.00;;;7.90;;
9834;SDS011;69850;50.942;13.748;2023-06-10T10:00:35;9.05;;;7.82;;
9834;SDS011;69850;50.942;13.748;2023-06-10T10:03:56;8.98;;;7.88;;
9834;SDS011;69850;50.942;13.748;2023-06-10T10:07:17;10.05;;;7.18;;
9834;SDS011;69850;50.942;13.748;2023-06-10T10:10:37;9.70;;;6.93;;
9834;SDS011;69850;50.942;13.748;2023-06-10T10:13:58;9.00;;;7.38;;
9834;SDS011;69850;50.942;13.748;2023-06-10T10:17:18;8.82;;;7.13;;
9834;SDS011;69850;50.942;13.748;2023-06-10T10:20:43;8.50;;;7.35;;
9834;SDS011;69850;50.942;13.748;2023-06-10T10:24:09;9.15;;;7.18;;
9834;SDS011;69850;50.942;13.748;2023-06-10T10:27:44;8.43;;;7.05;;
9834;SDS011;69850;50.942;13.748;2023-06-10T10:31:12;8.48;;;7.28;;
9834;SDS011;69850;50.942;13.748;2023-06-10T10:38:28;7.55;;;6.50;;
9834;SDS011;69850;50.942;13.748;2023-06-10T10:41:48;8.30;;;6.88;;
9834;SDS011;69850;50.942;13.748;2023-06-10T10:45:12;9.60;;;6.07;;
9834;SDS011;69850;50.942;13.748;2023-06-10T10:48:37;8.48;;;6.40;;
9834;SDS011;69850;50.942;13.748;2023-06-10T10:52:01;11.02;;;6.43;;
9834;SDS011;69850;50.942;13.748;2023-06-10T10:55:27;10.20;;;6.45;;
9834;SDS011;69850;50.942;13.748;2023-06-10T10:59:06;8.07;;;6.18;;
9834;SDS011;69850;50.942;13.748;2023-06-10T11:12:14;16.33;;;6.18;;
9834;SDS011;69850;50.942;13.748;2023-06-10T11:15:44;7.13;;;6.30;;
9834;SDS011;69850;50.942;13.748;2023-06-10T11:19:09;9.25;;;6.47;;
9834;SDS011;69850;50.942;13.748;2023-06-10T11:22:30;10.10;;;6.70;;
9834;SDS011;69850;50.942;13.748;2023-06-10T11:25:51;8.15;;;6.40;;
9834;SDS011;69850;50.942;13.748;2023-06-10T11:29:11;9.55;;;6.88;;
9834;SDS011;69850;50.942;13.748;2023-06-10T11:32:35;10.98;;;6.53;;
9834;SDS011;69850;50.942;13.748;2023-06-10T11:35:56;9.63;;;6.97;;
9834;SDS011;69850;50.942;13.748;2023-06-10T11:39:19;9.43;;;6.90;;
9834;SDS011;69850;50.942;13.748;2023-06-10T11:42:41;9.18;;;7.22;;
9834;SDS011;69850;50.942;13.748;2023-06-10T11:46:02;8.35;;;6.75;;
9834;SDS011;69850;50.942;13.748;2023-06-10T11:49:23;9.13;;;6.80;;
9834;SDS011;69850;50.942;13.748;2023-06-10T11:52:45;8.55;;;6.55;;
9834;SDS011;69850;50.942;13.748;2023-06-10T11:56:06;9.55;;;6.95;;
9834;SDS011;69850;50.942;13.748;2023-06-10T11:59:26;8.90;;;6.78;;
9834;SDS011;69850;50.942;13.748;2023-06-10T12:02:54;9.45;;;7.03;;
9834;SDS011;69850;50.942;13.748;2023-06-10T12:06:17;10.02;;;7.00;;
9834;SDS011;69850;50.942;13.748;2023-06-10T12:09:38;10.90;;;7.53;;
9834;SDS011;69850;50.942;13.748;2023-06-10T12:12:58;11.98;;;7.60;;
9834;SDS011;69850;50.942;13.748;2023-06-10T12:16:19;10.23;;;6.85;;
9834;SDS011;69850;50.942;13.748;2023-06-10T12:19:40;10.32;;;6.55;;
9834;SDS011;69850;50.942;13.748;2023-06-10T12:23:00;10.10;;;7.22;;
9834;SDS011;69850;50.942;13.748;2023-06-10T12:26:39;7.97;;;6.78;;
9834;SDS011;69850;50.942;13.748;2023-06-10T12:30:01;8.77;;;6.55;;
9834;SDS011;69850;50.942;13.748;2023-06-10T12:33:24;8.95;;;6.30;;
9834;SDS011;69850;50.942;13.748;2023-06-10T12:36:48;10.18;;;6.10;;
9834;SDS011;69850;50.942;13.748;2023-06-10T12:40:09;8.93;;;6.30;;
9834;SDS011;69850;50.942;13.748;2023-06-10T12:43:30;9.63;;;6.35;;
9834;SDS011;69850;50.942;13.748;2023-06-10T12:46:54;8.95;;;6.38;;
9834;SDS011;69850;50.942;13.748;2023-06-10T12:50:15;9.23;;;6.90;;
9834;SDS011;69850;50.942;13.748;2023-06-10T12:53:36;11.45;;;6.70;;
9834;SDS011;69850;50.942;13.748;2023-06-10T12:56:56;8.82;;;6.53;;
9834;SDS011;69850;50.942;13.748;2023-06-10T13:00:18;9.48;;;7.25;;
9834;SDS011;69850;50.942;13.748;2023-06-10T13:03:39;8.52;;;7.32;;
9834;SDS011;69850;50.942;13.748;2023-06-10T13:07:00;7.03;;;6.07;;
9834;SDS011;69850;50.942;13.748;2023-06-10T13:10:21;6.88;;;6.18;;
9834;SDS011;69850;50.942;13.748;2023-06-10T13:13:42;7.22;;;6.28;;
9834;SDS011;69850;50.942;13.748;2023-06-10T13:17:05;7.90;;;6.03;;
9834;SDS011;69850;50.942;13.748;2023-06-10T13:20:27;8.38;;;6.30;;
9834;SDS011;69850;50.942;13.748;2023-06-10T13:23:48;8.93;;;7.10;;
9834;SDS011;69850;50.942;13.748;2023-06-10T13:27:08;7.05;;;6.35;;
9834;SDS011;69850;50.942;13.748;2023-06-10T13:30:29;10.52;;;6.68;;
9834;SDS011;69850;50.942;13.748;2023-06-10T13:33:50;9.50;;;7.00;;
9834;SDS011;69850;50.942;13.748;2023-06-10T13:37:11;9.40;;;6.57;;
9834;SDS011;69850;50.942;13.748;2023-06-10T13:40:33;7.78;;;6.85;;
9834;SDS011;69850;50.942;13.748;2023-06-10T13:43:53;6.78;;;5.90;;
9834;SDS011;69850;50.942;13.748;2023-06-10T13:47:15;7.25;;;6.22;;
9834;SDS011;69850;50.942;13.748;2023-06-10T13:50:35;7.55;;;6.45;;
9834;SDS011;69850;50.942;13.748;2023-06-10T13:53:56;9.85;;;6.63;;
9834;SDS011;69850;50.942;13.748;2023-06-10T13:57:17;9.55;;;6.53;;
9834;SDS011;69850;50.942;13.748;2023-06-10T14:00:37;7.85;;;6.30;;
9834;SDS011;69850;50.942;13.748;2023-06-10T14:03:58;10.07;;;5.65;;
9834;SDS011;69850;50.942;13.748;2023-06-10T14:07:19;7.72;;;5.38;;
9834;SDS011;69850;50.942;13.748;2023-06-10T14:10:39;7.05;;;5.47;;
9834;SDS011;69850;50.942;13.748;2023-06-10T14:14:00;7.70;;;5.38;;
9834;SDS011;69850;50.942;13.748;2023-06-10T14:17:21;9.13;;;5.78;;
9834;SDS011;69850;50.942;13.748;2023-06-10T14:20:43;5.70;;;5.20;;
9834;SDS011;69850;50.942;13.748;2023-06-10T14:24:03;9.25;;;5.43;;
9834;SDS011;69850;50.942;13.748;2023-06-10T14:27:24;8.35;;;5.30;;
9834;SDS011;69850;50.942;13.748;2023-06-10T14:30:45;7.45;;;5.65;;
9834;SDS011;69850;50.942;13.748;2023-06-10T14:34:05;6.70;;;5.97;;
9834;SDS011;69850;50.942;13.748;2023-06-10T14:37:28;8.90;;;6.00;;
9834;SDS011;69850;50.942;13.748;2023-06-10T14:40:48;7.78;;;5.82;;
9834;SDS011;69850;50.942;13.748;2023-06-10T14:44:09;7.65;;;6.13;;
9834;SDS011;69850;50.942;13.748;2023-06-10T14:47:30;8.70;;;6.32;;
9834;SDS011;69850;50.942;13.748;2023-06-10T14:50:50;9.15;;;6.03;;
9834;SDS011;69850;50.942;13.748;2023-06-10T14:54:11;8.70;;;6.03;;
9834;SDS011;69850;50.942;13.748;2023-06-10T14:57:31;7.65;;;6.20;;
9834;SDS011;69850;50.942;13.748;2023-06-10T15:00:52;11.98;;;6.30;;
9834;SDS011;69850;50.942;13.748;2023-06-10T15:04:12;8.88;;;6.85;;
9834;SDS011;69850;50.942;13.748;2023-06-10T15:07:33;10.48;;;6.70;;
9834;SDS011;69850;50.942;13.748;2023-06-10T15:10:54;10.77;;;7.13;;
9834;SDS011;69850;50.942;13.748;2023-06-10T15:14:14;8.63;;;6.70;;
9834;SDS011;69850;50.942;13.748;2023-06-10T15:17:35;11.00;;;6.95;;
9834;SDS011;69850;50.942;13.748;2023-06-10T15:20:56;9.68;;;6.90;;
9834;SDS011;69850;50.942;13.748;2023-06-10T15:24:17;8.35;;;6.18;;
9834;SDS011;69850;50.942;13.748;2023-06-10T15:27:37;10.88;;;7.00;;
9834;SDS011;69850;50.942;13.748;2023-06-10T15:30:58;9.30;;;7.57;;
9834;SDS011;69850;50.942;13.748;2023-06-10T15:34:18;9.05;;;7.13;;
9834;SDS011;69850;50.942;13.748;2023-06-10T15:37:39;10.93;;;7.35;;
9834;SDS011;69850;50.942;13.748;2023-06-10T15:40:59;9.57;;;8.13;;
9834;SDS011;69850;50.942;13.748;2023-06-10T15:44:20;12.35;;;8.50;;
9834;SDS011;69850;50.942;13.748;2023-06-10T15:47:41;12.95;;;7.57;;
9834;SDS011;69850;50.942;13.748;2023-06-10T15:51:02;14.18;;;8.45;;
9834;SDS011;69850;50.942;13.748;2023-06-10T15:54:23;9.68;;;8.25;;
9834;SDS011;69850;50.942;13.748;2023-06-10T15:57:43;9.38;;;8.45;;
9834;SDS011;69850;50.942;13.748;2023-06-10T16:01:04;10.32;;;8.20;;
9834;SDS011;69850;50.942;13.748;2023-06-10T16:04:24;16.13;;;8.63;;
9834;SDS011;69850;50.942;13.748;2023-06-10T16:07:45;10.02;;;8.48;;
9834;SDS011;69850;50.942;13.748;2023-06-10T16:11:06;8.65;;;7.53;;
9834;SDS011;69850;50.942;13.748;2023-06-10T16:14:26;7.40;;;6.40;;
9834;SDS011;69850;50.942;13.748;2023-06-10T16:17:47;9.95;;;6.90;;
9834;SDS011;69850;50.942;13.748;2023-06-10T16:21:07;11.98;;;6.90;;
9834;SDS011;69850;50.942;13.748;2023-06-10T16:24:28;9.98;;;7.78;;
9834;SDS011;69850;50.942;13.748;2023-06-10T16:27:48;8.68;;;7.55;;
9834;SDS011;69850;50.942;13.748;2023-06-10T16:31:09;11.07;;;7.95;;
9834;SDS011;69850;50.942;13.748;2023-06-10T16:34:29;9.77;;;7.60;;
9834;SDS011;69850;50.942;13.748;2023-06-10T16:37:50;11.15;;;8.65;;
9834;SDS011;69850;50.942;13.748;2023-06-10T16:41:11;9.15;;;7.80;;
9834;SDS011;69850;50.942;13.748;2023-06-10T16:44:32;8.32;;;7.13;;
9834;SDS011;69850;50.942;13.748;2023-06-10T16:47:52;9.13;;;7.63;;
9834;SDS011;69850;50.942;13.748;2023-06-10T16:51:13;8.95;;;7.38;;
9834;SDS011;69850;50.942;13.748;2023-06-10T16:54:33;8.80;;;7.22;;
9834;SDS011;69850;50.942;13.748;2023-06-10T16:57:54;8.32;;;6.45;;
9834;SDS011;69850;50.942;13.748;2023-06-10T17:01:14;8.00;;;6.80;;
9834;SDS011;69850;50.942;13.748;2023-06-10T17:04:36;7.35;;;6.25;;
9834;SDS011;69850;50.942;13.748;2023-06-10T17:07:56;6.65;;;6.05;;
9834;SDS011;69850;50.942;13.748;2023-06-10T17:11:17;6.28;;;5.63;;
9834;SDS011;69850;50.942;13.748;2023-06-10T17:14:37;7.00;;;6.07;;
9834;SDS011;69850;50.942;13.748;2023-06-10T17:17:58;7.82;;;6.13;;
9834;SDS011;69850;50.942;13.748;2023-06-10T17:21:19;7.25;;;6.07;;
9834;SDS011;69850;50.942;13.748;2023-06-10T17:24:39;7.60;;;6.10;;
9834;SDS011;69850;50.942;13.748;2023-06-10T17:28:02;7.15;;;5.70;;
9834;SDS011;69850;50.942;13.748;2023-06-10T17:31:22;9.25;;;5.90;;
9834;SDS011;69850;50.942;13.748;2023-06-10T17:34:43;6.95;;;6.18;;
9834;SDS011;69850;50.942;13.748;2023-06-10T17:38:04;12.27;;;6.25;;
9834;SDS011;69850;50.942;13.748;2023-06-10T17:41:24;7.00;;;6.00;;
9834;SDS011;69850;50.942;13.748;2023-06-10T17:44:45;7.82;;;5.97;;
9834;SDS011;69850;50.942;13.748;2023-06-10T17:48:05;8.05;;;6.15;;
9834;SDS011;69850;50.942;13.748;2023-06-10T17:51:26;6.70;;;6.10;;
9834;SDS011;69850;50.942;13.748;2023-06-10T17:54:46;8.90;;;6.38;;
9834;SDS011;69850;50.942;13.748;2023-06-10T17:58:07;8.05;;;6.05;;
9834;SDS011;69850;50.942;13.748;2023-06-10T18:01:27;6.85;;;6.22;;
9834;SDS011;69850;50.942;13.748;2023-06-10T18:04:48;7.95;;;6.53;;
9834;SDS011;69850;50.942;13.748;2023-06-10T18:08:09;7.30;;;6.28;;
9834;SDS011;69850;50.942;13.748;2023-06-10T18:11:30;11.02;;;6.35;;
9834;SDS011;69850;50.942;13.748;2023-06-10T18:14:50;7.32;;;6.30;;
9834;SDS011;69850;50.942;13.748;2023-06-10T18:18:11;8.38;;;6.63;;
9834;SDS011;69850;50.942;13.748;2023-06-10T18:21:32;8.90;;;6.35;;
9834;SDS011;69850;50.942;13.748;2023-06-10T18:24:52;9.40;;;7.00;;
9834;SDS011;69850;50.942;13.748;2023-06-10T18:28:13;8.32;;;7.25;;
9834;SDS011;69850;50.942;13.748;2023-06-10T18:31:33;9.32;;;7.28;;
9834;SDS011;69850;50.942;13.748;2023-06-10T18:34:54;8.02;;;6.78;;
9834;SDS011;69850;50.942;13.748;2023-06-10T18:38:15;7.15;;;6.43;;
9834;SDS011;69850;50.942;13.748;2023-06-10T18:41:35;8.00;;;7.20;;
9834;SDS011;69850;50.942;13.748;2023-06-10T18:44:56;11.52;;;7.72;;
9834;SDS011;69850;50.942;13.748;2023-06-10T18:48:16;11.52;;;7.72;;
9834;SDS011;69850;50.942;13.748;2023-06-10T18:51:37;9.98;;;7.70;;
9834;SDS011;69850;50.942;13.748;2023-06-10T18:54:58;8.98;;;7.13;;
9834;SDS011;69850;50.942;13.748;2023-06-10T18:58:18;13.27;;;7.78;;
9834;SDS011;69850;50.942;13.748;2023-06-10T19:01:39;10.70;;;8.13;;
9834;SDS011;69850;50.942;13.748;2023-06-10T19:05:00;11.68;;;8.40;;
9834;SDS011;69850;50.942;13.748;2023-06-10T19:08:21;10.60;;;7.85;;
9834;SDS011;69850;50.942;13.748;2023-06-10T19:11:41;11.68;;;8.05;;
9834;SDS011;69850;50.942;13.748;2023-06-10T19:15:02;10.50;;;7.93;;
9834;SDS011;69850;50.942;13.748;2023-06-10T19:18:23;9.25;;;7.80;;
9834;SDS011;69850;50.942;13.748;2023-06-10T19:21:44;11.35;;;7.97;;
9834;SDS011;69850;50.942;13.748;2023-06-10T19:25:06;16.20;;;8.65;;
9834;SDS011;69850;50.942;13.748;2023-06-10T19:28:27;11.55;;;9.00;;
9834;SDS011;69850;50.942;13.748;2023-06-10T19:31:48;11.70;;;8.77;;
9834;SDS011;69850;50.942;13.748;2023-06-10T19:35:08;11.25;;;8.68;;
9834;SDS011;69850;50.942;13.748;2023-06-10T19:38:29;13.27;;;8.57;;
9834;SDS011;69850;50.942;13.748;2023-06-10T19:41:50;12.20;;;9.00;;
9834;SDS011;69850;50.942;13.748;2023-06-10T19:45:11;10.43;;;9.13;;
9834;SDS011;69850;50.942;13.748;2023-06-10T19:48:31;12.95;;;9.20;;
9834;SDS011;69850;50.942;13.748;2023-06-10T19:51:52;14.05;;;8.90;;
9834;SDS011;69850;50.942;13.748;2023-06-10T19:55:12;11.63;;;9.40;;
9834;SDS011;69850;50.942;13.748;2023-06-10T19:58:37;12.18;;;9.15;;
9834;SDS011;69850;50.942;13.748;2023-06-10T20:01:58;13.32;;;9.30;;
9834;SDS011;69850;50.942;13.748;2023-06-10T20:05:19;10.60;;;9.50;;
9834;SDS011;69850;50.942;13.748;2023-06-10T20:08:40;11.15;;;9.68;;
9834;SDS011;69850;50.942;13.748;2023-06-10T20:12:01;12.10;;;10.20;;
9834;SDS011;69850;50.942;13.748;2023-06-10T20:15:22;11.38;;;9.50;;